createdAt,value
2018-11-21T00:00:24.135Z,927.2
2018-11-21T00:01:24.040Z,927.2
2018-11-21T00:02:23.948Z,927.2
2018-11-21T00:03:23.863Z,927.2
2018-11-21T00:04:23.751Z,927.2
2018-11-21T00:05:23.671Z,927.2
2018-11-21T00:06:23.589Z,927.1
2018-11-21T00:07:23.488Z,927.2
2018-11-21T00:08:23.394Z,927.2
2018-11-21T00:09:23.334Z,927
2018-11-21T00:10:23.693Z,927.1
2018-11-21T00:11:23.420Z,927.1
2018-11-21T00:12:23.156Z,927.1
2018-11-21T00:13:22.887Z,927.2
2018-11-21T00:14:22.619Z,927.2
2018-11-21T00:15:22.355Z,926.9
2018-11-21T00:16:22.109Z,927
2018-11-21T00:17:21.844Z,927
2018-11-21T00:18:21.574Z,927.1
2018-11-21T00:19:21.311Z,927.1
2018-11-21T00:20:21.625Z,927.2
2018-11-21T00:21:21.543Z,927.1
2018-11-21T00:22:21.461Z,927.1
2018-11-21T00:23:21.351Z,927.2
2018-11-21T00:24:21.293Z,927.1
2018-11-21T00:25:21.187Z,927
2018-11-21T00:26:21.093Z,927
2018-11-21T00:27:21.005Z,927.2
2018-11-21T00:28:20.903Z,927.1
2018-11-21T00:29:20.791Z,927.3
2018-11-21T00:30:21.137Z,927.2
2018-11-21T00:31:21.035Z,927.2
2018-11-21T00:32:20.963Z,927.1
2018-11-21T00:33:20.869Z,927.1
2018-11-21T00:34:20.768Z,927
2018-11-21T00:35:20.685Z,927.2
2018-11-21T00:36:20.580Z,927.1
2018-11-21T00:37:20.469Z,927.1
2018-11-21T00:38:20.393Z,927.2
2018-11-21T00:39:20.290Z,927.2
2018-11-21T00:40:20.867Z,927
2018-11-21T00:41:20.815Z,927
2018-11-21T00:42:20.711Z,927.2
2018-11-21T00:43:20.647Z,927.2
2018-11-21T00:44:20.618Z,927.2
2018-11-21T00:45:20.510Z,927.1
2018-11-21T00:46:20.413Z,927
2018-11-21T00:47:20.327Z,927.1
2018-11-21T00:48:20.227Z,927.1
2018-11-21T00:49:20.135Z,927.1
2018-11-21T00:50:20.492Z,927.1
2018-11-21T00:51:20.401Z,927.1
2018-11-21T00:52:20.305Z,927.1
2018-11-21T00:53:20.211Z,927.1
2018-11-21T00:54:20.126Z,927.1
2018-11-21T00:55:20.036Z,927
2018-11-21T00:56:19.934Z,927.1
2018-11-21T00:57:19.825Z,927.1
2018-11-21T00:58:19.750Z,927.1
2018-11-21T00:59:19.650Z,927.1
2018-11-21T01:00:20.014Z,927.2
2018-11-21T01:01:19.918Z,927.2
2018-11-21T01:02:19.830Z,927.2
2018-11-21T01:03:19.738Z,927.1
2018-11-21T01:04:19.634Z,927.2
2018-11-21T01:05:19.549Z,927.2
2018-11-21T01:06:19.450Z,927.2
2018-11-21T01:07:19.357Z,927.2
2018-11-21T01:08:19.261Z,927.2
2018-11-21T01:09:19.168Z,927.2
2018-11-21T01:10:19.535Z,927
2018-11-21T01:11:19.433Z,927
2018-11-21T01:12:19.340Z,927.2
2018-11-21T01:13:19.274Z,927.2
2018-11-21T01:14:19.192Z,927.1
2018-11-21T01:15:19.081Z,927.2
2018-11-21T01:16:18.986Z,927.2
2018-11-21T01:17:18.877Z,926.4
2018-11-21T01:18:18.768Z,927
2018-11-21T01:19:18.655Z,927.2
2018-11-21T01:20:18.822Z,927.2
2018-11-21T01:21:18.595Z,927.1
2018-11-21T01:22:18.322Z,927.2
2018-11-21T01:23:18.059Z,927.1
2018-11-21T01:24:17.794Z,927.2
2018-11-21T01:25:17.521Z,927.1
2018-11-21T01:26:17.273Z,927
2018-11-21T01:27:17.020Z,927.1
2018-11-21T01:28:16.745Z,927.1
2018-11-21T01:29:16.478Z,926.9
2018-11-21T01:30:16.629Z,927.1
2018-11-21T01:31:16.352Z,927.1
2018-11-21T01:32:16.100Z,927
2018-11-21T01:33:15.853Z,927
2018-11-21T01:34:15.576Z,927.1
2018-11-21T01:35:15.318Z,927.1
2018-11-21T01:36:15.043Z,927
2018-11-21T01:37:14.770Z,927
2018-11-21T01:38:14.540Z,927
2018-11-21T01:39:14.272Z,927
2018-11-21T01:40:14.468Z,927
2018-11-21T01:41:14.234Z,927
2018-11-21T01:42:13.970Z,926.9
2018-11-21T01:43:13.704Z,926.8
2018-11-21T01:44:13.448Z,926.9
2018-11-21T01:45:13.167Z,927
2018-11-21T01:46:12.896Z,927
2018-11-21T01:47:12.626Z,927
2018-11-21T01:48:12.375Z,927
2018-11-21T01:49:12.146Z,927
2018-11-21T01:50:12.317Z,926.9
2018-11-21T01:51:12.055Z,926.9
2018-11-21T01:52:11.784Z,927
2018-11-21T01:53:11.516Z,927
2018-11-21T01:54:11.247Z,927.1
2018-11-21T01:55:10.994Z,927.1
2018-11-21T01:56:10.731Z,927
2018-11-21T01:57:10.467Z,927.1
2018-11-21T01:58:10.208Z,927.1
2018-11-21T01:59:09.940Z,927.1
2018-11-21T02:00:10.128Z,927.1
2018-11-21T02:01:09.861Z,927.1
2018-11-21T02:02:09.605Z,927.1
2018-11-21T02:03:09.340Z,927.1
2018-11-21T02:04:09.073Z,927
2018-11-21T02:05:08.885Z,927
2018-11-21T02:06:08.625Z,927.1
2018-11-21T02:07:08.350Z,925.4
2018-11-21T02:08:08.085Z,927.1
2018-11-21T02:09:07.815Z,927.1
2018-11-21T02:10:08.132Z,927.1
2018-11-21T02:11:08.068Z,927.1
2018-11-21T02:12:07.966Z,927
2018-11-21T02:13:07.894Z,927.1
2018-11-21T02:14:07.798Z,927.1
2018-11-21T02:15:07.699Z,927.1
2018-11-21T02:16:07.608Z,927.1
2018-11-21T02:17:07.514Z,927.1
2018-11-21T02:18:07.409Z,927.1
2018-11-21T02:19:07.304Z,927.2
2018-11-21T02:20:07.488Z,927.2
2018-11-21T02:21:07.214Z,927.1
2018-11-21T02:22:06.952Z,927.2
2018-11-21T02:23:06.683Z,927.2
2018-11-21T02:24:09.064Z,927.1
2018-11-21T02:25:08.810Z,927.2
2018-11-21T02:26:08.538Z,927.2
2018-11-21T02:27:08.305Z,927.2
2018-11-21T02:28:08.084Z,927.2
2018-11-21T02:29:07.824Z,927.2
2018-11-21T02:30:07.995Z,927.2
2018-11-21T02:31:07.739Z,927.2
2018-11-21T02:32:07.477Z,927.1
2018-11-21T02:33:07.248Z,927.2
2018-11-21T02:34:06.989Z,927.1
2018-11-21T02:35:06.720Z,927.2
2018-11-21T02:36:06.450Z,927.2
2018-11-21T02:37:06.168Z,927.3
2018-11-21T02:38:05.905Z,927.4
2018-11-21T02:39:05.650Z,927.3
2018-11-21T02:40:05.994Z,927.2
2018-11-21T02:41:05.921Z,925.9
2018-11-21T02:42:05.865Z,927.3
2018-11-21T02:43:05.806Z,927.4
2018-11-21T02:44:05.746Z,927.4
2018-11-21T02:45:05.662Z,927.4
2018-11-21T02:46:05.575Z,927.3
2018-11-21T02:47:05.504Z,927.4
2018-11-21T02:48:05.428Z,927.4
2018-11-21T02:49:05.375Z,927.5
2018-11-21T02:50:05.776Z,927.5
2018-11-21T02:51:05.746Z,927.4
2018-11-21T02:52:05.665Z,927.4
2018-11-21T02:53:05.561Z,927.5
2018-11-21T02:54:05.474Z,927.4
2018-11-21T02:55:05.443Z,927.5
2018-11-21T02:56:05.361Z,927.5
2018-11-21T02:57:05.277Z,927.5
2018-11-21T02:58:05.196Z,927.3
2018-11-21T02:59:05.325Z,927.5
2018-11-21T03:00:05.987Z,927.6
2018-11-21T03:01:05.950Z,927.6
2018-11-21T03:02:05.854Z,927.6
2018-11-21T03:03:05.748Z,925.6
2018-11-21T03:04:05.637Z,927.7
2018-11-21T03:05:05.550Z,927.6
2018-11-21T03:06:05.480Z,927.7
2018-11-21T03:07:05.413Z,927.7
2018-11-21T03:08:05.326Z,927.6
2018-11-21T03:09:05.238Z,927.7
2018-11-21T03:10:05.840Z,927.7
2018-11-21T03:11:05.833Z,927.7
2018-11-21T03:12:05.731Z,927.6
2018-11-21T03:13:05.650Z,927.7
2018-11-21T03:14:05.566Z,927.7
2018-11-21T03:15:05.455Z,927.7
2018-11-21T03:16:05.363Z,927.7
2018-11-21T03:17:05.265Z,927.7
2018-11-21T03:18:05.197Z,927.7
2018-11-21T03:19:05.091Z,927.7
2018-11-21T03:20:05.241Z,927.6
2018-11-21T03:21:04.989Z,927.7
2018-11-21T03:22:04.727Z,927.8
2018-11-21T03:23:04.480Z,927.8
2018-11-21T03:24:04.231Z,927.8
2018-11-21T03:25:03.963Z,927.8
2018-11-21T03:26:03.730Z,927.8
2018-11-21T03:27:03.475Z,927.8
2018-11-21T03:28:03.208Z,927.7
2018-11-21T03:29:02.975Z,927.7
2018-11-21T03:30:03.330Z,927.7
2018-11-21T03:31:03.249Z,927.8
2018-11-21T03:32:03.284Z,927.8
2018-11-21T03:33:03.185Z,927.8
2018-11-21T03:34:03.125Z,927.7
2018-11-21T03:35:03.035Z,927.8
2018-11-21T03:36:02.959Z,927.7
2018-11-21T03:37:02.939Z,927.8
2018-11-21T03:38:02.851Z,927.8
2018-11-21T03:39:02.787Z,927.9
2018-11-21T03:40:03.151Z,928
2018-11-21T03:41:03.269Z,927.9
2018-11-21T03:42:03.173Z,927.8
2018-11-21T03:43:03.087Z,927.9
2018-11-21T03:44:02.995Z,927.9
2018-11-21T03:45:02.962Z,927.9
2018-11-21T03:46:02.869Z,927.9
2018-11-21T03:47:02.756Z,927.8
2018-11-21T03:48:02.650Z,927.9
2018-11-21T03:49:02.557Z,927.8
2018-11-21T03:50:02.927Z,927.9
2018-11-21T03:51:02.843Z,928
2018-11-21T03:52:02.783Z,927.7
2018-11-21T03:53:02.716Z,927.9
2018-11-21T03:54:02.639Z,927.9
2018-11-21T03:55:02.576Z,927.9
2018-11-21T03:56:02.510Z,927.6
2018-11-21T03:57:02.401Z,927.7
2018-11-21T03:58:02.302Z,927.9
2018-11-21T03:59:02.379Z,927.8
2018-11-21T04:00:02.733Z,927.7
2018-11-21T04:01:02.671Z,927.8
2018-11-21T04:02:02.581Z,927.8
2018-11-21T04:03:02.505Z,927.9
2018-11-21T04:04:02.412Z,927.9
2018-11-21T04:05:02.329Z,928
2018-11-21T04:06:02.233Z,928
2018-11-21T04:07:02.151Z,928
2018-11-21T04:08:02.062Z,928
2018-11-21T04:09:01.972Z,927.8
2018-11-21T04:10:02.327Z,928.1
2018-11-21T04:11:02.232Z,928.1
2018-11-21T04:12:02.183Z,928.1
2018-11-21T04:13:02.087Z,928.2
2018-11-21T04:14:02.003Z,928
2018-11-21T04:15:01.918Z,928.1
2018-11-21T04:16:01.849Z,928.1
2018-11-21T04:17:01.805Z,928.1
2018-11-21T04:18:01.729Z,928
2018-11-21T04:19:01.626Z,928
2018-11-21T04:20:01.830Z,928.1
2018-11-21T04:21:01.576Z,928.1
2018-11-21T04:22:01.311Z,928.2
2018-11-21T04:23:01.069Z,928.2
2018-11-21T04:24:00.814Z,928.3
2018-11-21T04:25:00.576Z,928.3
2018-11-21T04:26:00.308Z,928.2
2018-11-21T04:27:00.052Z,928.1
2018-11-21T04:27:59.813Z,928.2
2018-11-21T04:28:59.559Z,927.5
2018-11-21T04:30:00.244Z,928.2
2018-11-21T04:31:00.149Z,928.2
2018-11-21T04:32:00.080Z,928
2018-11-21T04:33:00.015Z,928.2
2018-11-21T04:33:59.935Z,928.3
2018-11-21T04:34:59.824Z,928.3
2018-11-21T04:35:59.734Z,928.2
2018-11-21T04:36:59.874Z,928.2
2018-11-21T04:37:59.778Z,928.2
2018-11-21T04:38:59.734Z,928.3
2018-11-21T04:40:00.062Z,928.3
2018-11-21T04:40:59.972Z,928.3
2018-11-21T04:41:59.905Z,928.3
2018-11-21T04:42:59.827Z,928.3
2018-11-21T04:43:59.750Z,928.2
2018-11-21T04:44:59.692Z,928.3
2018-11-21T04:45:59.601Z,928.3
2018-11-21T04:46:59.486Z,928.3
2018-11-21T04:47:59.404Z,928.3
2018-11-21T04:48:59.302Z,928.4
2018-11-21T04:49:59.658Z,928.4
2018-11-21T04:50:59.566Z,928.4
2018-11-21T04:51:59.471Z,928.5
2018-11-21T04:52:59.375Z,928.5
2018-11-21T04:53:59.283Z,928.5
2018-11-21T04:54:59.241Z,928.5
2018-11-21T04:55:59.158Z,928.5
2018-11-21T04:56:59.082Z,928.5
2018-11-21T04:57:59.009Z,928.4
2018-11-21T04:58:58.915Z,928.5
2018-11-21T04:59:59.255Z,928.5
2018-11-21T05:00:59.197Z,928.5
2018-11-21T05:01:59.092Z,928.5
2018-11-21T05:02:58.992Z,928.5
2018-11-21T05:03:58.898Z,928.5
2018-11-21T05:04:58.793Z,928.5
2018-11-21T05:05:58.713Z,928.5
2018-11-21T05:06:58.668Z,928.3
2018-11-21T05:07:58.562Z,928.5
2018-11-21T05:08:58.478Z,928.4
2018-11-21T05:09:58.650Z,928.7
2018-11-21T05:10:58.405Z,928.5
2018-11-21T05:11:58.132Z,928.6
2018-11-21T05:12:57.929Z,928.6
2018-11-21T05:13:57.660Z,928.7
2018-11-21T05:14:57.384Z,928.7
2018-11-21T05:15:57.114Z,928.6
2018-11-21T05:16:57.979Z,928.6
2018-11-21T05:17:57.818Z,928.6
2018-11-21T05:18:57.542Z,928.6
2018-11-21T05:19:57.902Z,928.6
2018-11-21T05:20:57.824Z,928.7
2018-11-21T05:21:57.725Z,928.7
2018-11-21T05:22:57.614Z,928.7
2018-11-21T05:23:57.560Z,928.7
2018-11-21T05:24:57.439Z,928.8
2018-11-21T05:25:57.352Z,928.7
2018-11-21T05:26:57.251Z,928.7
2018-11-21T05:27:57.150Z,928.8
2018-11-21T05:28:57.044Z,928.8
2018-11-21T05:29:57.402Z,928.8
2018-11-21T05:30:57.290Z,928.6
2018-11-21T05:31:57.219Z,928.9
2018-11-21T05:32:57.131Z,928.9
2018-11-21T05:33:57.040Z,928.8
2018-11-21T05:34:56.950Z,928.9
2018-11-21T05:35:56.837Z,928.9
2018-11-21T05:36:56.748Z,929
2018-11-21T05:37:56.635Z,928.9
2018-11-21T05:38:56.530Z,928.8
2018-11-21T05:39:56.856Z,926.8
2018-11-21T05:40:56.779Z,928.9
2018-11-21T05:41:56.678Z,928.8
2018-11-21T05:42:56.586Z,929
2018-11-21T05:43:56.531Z,929
2018-11-21T05:44:56.467Z,928.8
2018-11-21T05:45:56.372Z,928.7
2018-11-21T05:46:56.279Z,928.8
2018-11-21T05:47:56.190Z,927.2
2018-11-21T05:48:56.082Z,928.7
2018-11-21T05:49:56.426Z,929
2018-11-21T05:50:56.352Z,929
2018-11-21T05:51:56.245Z,929
2018-11-21T05:52:56.167Z,929.1
2018-11-21T05:53:56.068Z,929
2018-11-21T05:54:55.964Z,929.1
2018-11-21T05:55:55.853Z,929.2
2018-11-21T05:56:55.747Z,929.2
2018-11-21T05:57:55.630Z,929
2018-11-21T05:58:55.542Z,929.2
2018-11-21T05:59:55.848Z,929.2
2018-11-21T06:00:55.747Z,929.1
2018-11-21T06:01:55.660Z,929.2
2018-11-21T06:02:55.568Z,929.3
2018-11-21T06:03:55.473Z,929.3
2018-11-21T06:04:55.384Z,929.3
2018-11-21T06:05:55.293Z,929
2018-11-21T06:06:55.208Z,929.3
2018-11-21T06:07:55.137Z,929.3
2018-11-21T06:08:55.039Z,929.4
2018-11-21T06:09:56.700Z,929.3
2018-11-21T06:10:56.597Z,929.4
2018-11-21T06:11:56.492Z,929.3
2018-11-21T06:12:56.435Z,929.3
2018-11-21T06:13:56.329Z,929.4
2018-11-21T06:14:56.238Z,929.4
2018-11-21T06:15:56.133Z,929.3
2018-11-21T06:16:56.044Z,929.4
2018-11-21T06:17:55.943Z,929.3
2018-11-21T06:18:55.853Z,929.3
2018-11-21T06:19:57.413Z,929.2
2018-11-21T06:20:57.333Z,929.4
2018-11-21T06:21:57.231Z,927.3
2018-11-21T06:22:57.131Z,929.2
2018-11-21T06:23:57.041Z,927.2
2018-11-21T06:24:56.973Z,929.4
2018-11-21T06:25:56.889Z,929.4
2018-11-21T06:26:56.785Z,929.4
2018-11-21T06:27:56.687Z,929.3
2018-11-21T06:28:56.569Z,929.4
2018-11-21T06:29:56.909Z,929.4
2018-11-21T06:30:56.828Z,929.4
2018-11-21T06:31:56.705Z,929.5
2018-11-21T06:32:56.611Z,929.5
2018-11-21T06:33:56.495Z,928.8
2018-11-21T06:34:56.427Z,929.5
2018-11-21T06:35:56.320Z,929.5
2018-11-21T06:36:56.234Z,929.5
2018-11-21T06:37:56.143Z,929.6
2018-11-21T06:38:56.051Z,929.5
2018-11-21T06:39:56.404Z,929.6
2018-11-21T06:40:56.372Z,929.6
2018-11-21T06:41:56.279Z,929.5
2018-11-21T06:42:56.174Z,929.7
2018-11-21T06:43:56.060Z,929.6
2018-11-21T06:44:55.975Z,929.5
2018-11-21T06:45:55.894Z,929.6
2018-11-21T06:46:55.811Z,929.6
2018-11-21T06:47:55.715Z,929.5
2018-11-21T06:48:55.606Z,929.6
2018-11-21T06:49:55.945Z,929.6
2018-11-21T06:50:55.849Z,929.7
2018-11-21T06:51:55.754Z,929.6
2018-11-21T06:52:55.643Z,929.7
2018-11-21T06:53:55.527Z,929.7
2018-11-21T06:54:55.441Z,929.7
2018-11-21T06:55:55.342Z,929.7
2018-11-21T06:56:55.274Z,929.5
2018-11-21T06:57:55.177Z,929.6
2018-11-21T06:58:56.128Z,929.6
2018-11-21T06:59:56.431Z,929.7
2018-11-21T07:00:56.355Z,929.7
2018-11-21T07:01:56.293Z,929.7
2018-11-21T07:02:56.179Z,929.7
2018-11-21T07:03:56.073Z,929.7
2018-11-21T07:04:55.979Z,929.7
2018-11-21T07:05:55.882Z,929.7
2018-11-21T07:06:55.789Z,928.2
2018-11-21T07:07:55.698Z,929.7
2018-11-21T07:08:55.605Z,929.7
2018-11-21T07:09:55.905Z,928.8
2018-11-21T07:10:55.823Z,929.8
2018-11-21T07:11:55.713Z,929.7
2018-11-21T07:12:55.649Z,929.8
2018-11-21T07:13:55.554Z,929.9
2018-11-21T07:14:55.458Z,929.8
2018-11-21T07:15:55.357Z,929.9
2018-11-21T07:16:55.261Z,929.8
2018-11-21T07:17:55.161Z,929.9
2018-11-21T07:18:55.071Z,929.8
2018-11-21T07:19:55.371Z,929.8
2018-11-21T07:20:55.267Z,929.9
2018-11-21T07:21:55.150Z,929.8
2018-11-21T07:22:55.061Z,929.8
2018-11-21T07:23:54.987Z,929.9
2018-11-21T07:24:54.887Z,928.8
2018-11-21T07:25:54.789Z,929.8
2018-11-21T07:26:54.677Z,929.9
2018-11-21T07:27:54.560Z,929.9
2018-11-21T07:28:55.593Z,929.9
2018-11-21T07:29:55.925Z,929.9
2018-11-21T07:30:55.837Z,929.8
2018-11-21T07:31:55.741Z,930
2018-11-21T07:32:55.656Z,929.9
2018-11-21T07:33:55.576Z,930
2018-11-21T07:34:55.516Z,929.9
2018-11-21T07:35:55.433Z,930
2018-11-21T07:36:55.331Z,929.9
2018-11-21T07:37:55.225Z,929.9
2018-11-21T07:38:55.130Z,929.9
2018-11-21T07:39:55.478Z,929.8
2018-11-21T07:40:55.415Z,929.9
2018-11-21T07:41:55.335Z,929.9
2018-11-21T07:42:55.237Z,929.9
2018-11-21T07:43:55.159Z,929.9
2018-11-21T07:44:55.081Z,930
2018-11-21T07:45:55.010Z,929.8
2018-11-21T07:46:54.904Z,929.9
2018-11-21T07:47:54.812Z,929.8
2018-11-21T07:48:54.716Z,929.8
2018-11-21T07:49:54.868Z,930
2018-11-21T07:50:54.635Z,929.9
2018-11-21T07:51:54.363Z,929.9
2018-11-21T07:52:54.113Z,930
2018-11-21T07:53:53.841Z,929.9
2018-11-21T07:54:53.590Z,930
2018-11-21T07:55:53.330Z,929.9
2018-11-21T07:56:53.079Z,930
2018-11-21T07:57:52.821Z,930
2018-11-21T07:58:52.560Z,929.9
2018-11-21T07:59:55.212Z,929.9
2018-11-21T08:00:54.962Z,930
2018-11-21T08:01:54.836Z,930
2018-11-21T08:02:54.566Z,930
2018-11-21T08:03:54.335Z,930
2018-11-21T08:04:54.061Z,930
2018-11-21T08:05:53.780Z,930
2018-11-21T08:06:53.532Z,928.4
2018-11-21T08:07:53.275Z,930
2018-11-21T08:08:53.034Z,928.9
2018-11-21T08:09:53.412Z,930.1
2018-11-21T08:10:53.306Z,930.1
2018-11-21T08:11:53.221Z,930
2018-11-21T08:12:53.116Z,930.1
2018-11-21T08:13:53.022Z,930.2
2018-11-21T08:14:52.922Z,930
2018-11-21T08:15:52.850Z,930
2018-11-21T08:16:52.742Z,930.1
2018-11-21T08:17:52.632Z,930.1
2018-11-21T08:18:52.544Z,930.1
2018-11-21T08:19:52.922Z,930.1
2018-11-21T08:20:52.658Z,930.2
2018-11-21T08:21:52.394Z,930
2018-11-21T08:22:52.121Z,930.2
2018-11-21T08:23:56.427Z,930.1
2018-11-21T08:24:56.181Z,930.1
2018-11-21T08:25:55.910Z,930.2
2018-11-21T08:26:55.632Z,930.2
2018-11-21T08:27:55.378Z,930.1
2018-11-21T08:28:55.120Z,930.2
2018-11-21T08:29:55.450Z,930.2
2018-11-21T08:30:55.369Z,930.2
2018-11-21T08:31:55.284Z,930.2
2018-11-21T08:32:55.188Z,930.2
2018-11-21T08:33:55.082Z,930.2
2018-11-21T08:34:54.974Z,930.3
2018-11-21T08:35:54.892Z,930.3
2018-11-21T08:36:54.798Z,930.3
2018-11-21T08:37:54.687Z,930.2
2018-11-21T08:38:54.588Z,930.2
2018-11-21T08:39:54.929Z,930.2
2018-11-21T08:40:54.869Z,928.3
2018-11-21T08:41:54.770Z,930.2
2018-11-21T08:42:54.661Z,930.2
2018-11-21T08:44:54.464Z,930.3
2018-11-21T08:45:54.370Z,930.2
2018-11-21T08:46:54.260Z,930.4
2018-11-21T08:47:54.161Z,930.4
2018-11-21T08:48:54.064Z,930.4
2018-11-21T08:49:54.398Z,930.3
2018-11-21T08:50:54.301Z,930.4
2018-11-21T08:51:54.225Z,930.4
2018-11-21T08:52:54.128Z,930.3
2018-11-21T08:53:54.012Z,930.4
2018-11-21T08:54:53.910Z,930.3
2018-11-21T08:55:53.814Z,930.6
2018-11-21T08:56:53.739Z,930.4
2018-11-21T08:57:53.662Z,928.5
2018-11-21T08:58:53.556Z,929.1
2018-11-21T08:59:53.869Z,930.5
2018-11-21T09:00:53.773Z,930.5
2018-11-21T09:01:53.680Z,930
2018-11-21T09:02:53.590Z,930.5
2018-11-21T09:03:53.485Z,930.3
2018-11-21T09:04:53.366Z,930.5
2018-11-21T09:05:53.248Z,930.5
2018-11-21T09:06:53.138Z,930.5
2018-11-21T09:07:53.044Z,930.5
2018-11-21T09:08:52.946Z,930.5
2018-11-21T09:09:53.164Z,930.5
2018-11-21T09:10:53.634Z,930
2018-11-21T09:11:53.370Z,930.6
2018-11-21T09:12:53.094Z,930.6
2018-11-21T09:13:54.028Z,930.8
2018-11-21T09:14:53.760Z,930.6
2018-11-21T09:15:54.172Z,930.5
2018-11-21T09:16:53.943Z,930.6
2018-11-21T09:17:53.668Z,930.5
2018-11-21T09:18:53.421Z,930.6
2018-11-21T09:19:53.592Z,930.6
2018-11-21T09:20:53.323Z,930.6
2018-11-21T09:21:53.053Z,930.6
2018-11-21T09:22:52.797Z,930.5
2018-11-21T09:23:52.536Z,930.6
2018-11-21T09:24:52.306Z,930.6
2018-11-21T09:25:52.054Z,930.6
2018-11-21T09:26:51.808Z,930.6
2018-11-21T09:27:51.572Z,930.6
2018-11-21T09:28:51.300Z,930.6
2018-11-21T09:29:51.464Z,930.6
2018-11-21T09:30:51.216Z,930.6
2018-11-21T09:31:50.962Z,930.6
2018-11-21T09:32:50.712Z,928.9
2018-11-21T09:33:50.447Z,930.5
2018-11-21T09:34:50.175Z,930.6
2018-11-21T09:35:49.963Z,930.5
2018-11-21T09:36:49.698Z,930.5
2018-11-21T09:37:49.436Z,930.5
2018-11-21T09:38:49.168Z,930.6
2018-11-21T09:39:49.347Z,930.6
2018-11-21T09:40:49.090Z,930.6
2018-11-21T09:41:48.820Z,928.9
2018-11-21T09:42:48.587Z,930.5
2018-11-21T09:43:48.327Z,930.6
2018-11-21T09:44:48.074Z,930.6
2018-11-21T09:45:47.806Z,930.5
2018-11-21T09:46:47.578Z,930.6
2018-11-21T09:47:47.345Z,930.6
2018-11-21T09:48:47.092Z,930.7
2018-11-21T09:49:47.500Z,930.6
2018-11-21T09:50:47.391Z,930.6
2018-11-21T09:51:47.342Z,930.5
2018-11-21T09:52:51.360Z,930.2
2018-11-21T09:53:51.280Z,930.6
2018-11-21T09:54:51.192Z,930.6
2018-11-21T09:55:51.096Z,930.6
2018-11-21T09:56:51.039Z,930.6
2018-11-21T09:57:50.964Z,930.5
2018-11-21T09:58:50.877Z,930.5
2018-11-21T09:59:51.233Z,930.6
2018-11-21T10:00:51.145Z,930.7
2018-11-21T10:01:51.043Z,930.7
2018-11-21T10:02:50.975Z,930.5
2018-11-21T10:03:50.872Z,930.6
2018-11-21T10:04:50.793Z,930.6
2018-11-21T10:05:50.704Z,930.6
2018-11-21T10:06:50.608Z,930.4
2018-11-21T10:07:50.518Z,930.4
2018-11-21T10:08:50.478Z,930.5
2018-11-21T10:09:50.828Z,930.5
2018-11-21T10:10:50.737Z,930.3
2018-11-21T10:11:50.645Z,930.5
2018-11-21T10:12:50.555Z,930.4
2018-11-21T10:13:50.500Z,930.5
2018-11-21T10:14:50.424Z,930.6
2018-11-21T10:15:50.339Z,930.5
2018-11-21T10:16:50.239Z,930.5
2018-11-21T10:17:50.152Z,930.5
2018-11-21T10:18:50.068Z,930.5
2018-11-21T10:19:50.436Z,930.5
2018-11-21T10:20:50.191Z,930.6
2018-11-21T10:21:49.984Z,930.6
2018-11-21T10:22:49.725Z,930.6
2018-11-21T10:23:49.475Z,930.6
2018-11-21T10:24:49.234Z,930.5
2018-11-21T10:25:48.979Z,930.6
2018-11-21T10:26:48.723Z,930.6
2018-11-21T10:27:48.470Z,930.7
2018-11-21T10:28:48.233Z,930.6
2018-11-21T10:29:48.616Z,930.5
2018-11-21T10:30:48.543Z,930.6
2018-11-21T10:31:48.444Z,930.6
2018-11-21T10:32:48.351Z,930.6
2018-11-21T10:33:48.245Z,929.7
2018-11-21T10:34:48.127Z,930.7
2018-11-21T10:35:48.055Z,930.7
2018-11-21T10:36:47.956Z,928.8
2018-11-21T10:37:47.873Z,930.6
2018-11-21T10:38:47.786Z,930.6
2018-11-21T10:39:48.117Z,930.6
2018-11-21T10:40:48.017Z,930.6
2018-11-21T10:41:47.945Z,930.6
2018-11-21T10:42:47.861Z,930.6
2018-11-21T10:43:47.766Z,930.7
2018-11-21T10:44:47.693Z,930.4
2018-11-21T10:45:47.598Z,930.5
2018-11-21T10:46:47.548Z,930.6
2018-11-21T10:47:47.442Z,930.6
2018-11-21T10:48:47.338Z,930.6
2018-11-21T10:49:47.653Z,930.6
2018-11-21T10:50:47.585Z,930.6
2018-11-21T10:51:47.485Z,930.5
2018-11-21T10:52:47.405Z,930.6
2018-11-21T10:53:47.297Z,930.5
2018-11-21T10:54:47.197Z,930.5
2018-11-21T10:55:47.151Z,930.4
2018-11-21T10:56:47.052Z,930.4
2018-11-21T10:57:46.995Z,930.5
2018-11-21T10:58:46.877Z,930.2
2018-11-21T10:59:47.233Z,930.5
2018-11-21T11:00:46.963Z,930.6
2018-11-21T11:01:46.706Z,930.5
2018-11-21T11:02:46.487Z,930.4
2018-11-21T11:03:46.223Z,930.6
2018-11-21T11:04:45.961Z,930.5
2018-11-21T11:05:45.698Z,930.5
2018-11-21T11:06:45.449Z,930.5
2018-11-21T11:07:45.197Z,930.6
2018-11-21T11:08:44.985Z,930.6
2018-11-21T11:09:45.334Z,930.6
2018-11-21T11:10:45.251Z,930.7
2018-11-21T11:11:45.133Z,930.7
2018-11-21T11:12:45.021Z,928.8
2018-11-21T11:13:44.956Z,930.7
2018-11-21T11:14:44.858Z,930.7
2018-11-21T11:15:44.813Z,930.7
2018-11-21T11:16:44.759Z,930.7
2018-11-21T11:17:44.701Z,930.7
2018-11-21T11:18:44.611Z,930.7
2018-11-21T11:19:44.954Z,930.6
2018-11-21T11:20:44.875Z,929.8
2018-11-21T11:21:44.769Z,930.5
2018-11-21T11:22:44.679Z,930.6
2018-11-21T11:23:44.577Z,930.5
2018-11-21T11:24:44.497Z,930.7
2018-11-21T11:25:44.395Z,930.7
2018-11-21T11:26:44.305Z,929.4
2018-11-21T11:27:44.293Z,930.5
2018-11-21T11:28:44.209Z,930.8
2018-11-21T11:29:44.654Z,930.8
2018-11-21T11:30:44.614Z,930.7
2018-11-21T11:31:44.579Z,930.8
2018-11-21T11:32:44.503Z,930.8
2018-11-21T11:33:44.399Z,930.8
2018-11-21T11:34:44.309Z,930.8
2018-11-21T11:35:44.263Z,930.6
2018-11-21T11:36:44.196Z,930.8
2018-11-21T11:37:44.100Z,930.8
2018-11-21T11:38:44.001Z,930.8
2018-11-21T11:39:44.377Z,930.6
2018-11-21T11:40:44.277Z,930.6
2018-11-21T11:41:44.178Z,930.6
2018-11-21T11:42:44.059Z,930.7
2018-11-21T11:43:43.970Z,930.7
2018-11-21T11:44:43.867Z,930.7
2018-11-21T11:45:43.765Z,930.8
2018-11-21T11:46:43.661Z,930.7
2018-11-21T11:47:43.611Z,930.6
2018-11-21T11:48:43.516Z,930.8
2018-11-21T11:49:43.873Z,930.7
2018-11-21T11:50:43.810Z,930.7
2018-11-21T11:51:43.721Z,930.8
2018-11-21T11:52:43.656Z,930.8
2018-11-21T11:53:43.556Z,928.9
2018-11-21T11:54:43.466Z,930.7
2018-11-21T11:55:43.387Z,930.7
2018-11-21T11:56:43.336Z,930.7
2018-11-21T11:57:43.319Z,930.7
2018-11-21T11:58:43.229Z,930.7
2018-11-21T11:59:43.571Z,930.7
2018-11-21T12:00:43.492Z,930.5
2018-11-21T12:01:43.389Z,930.6
2018-11-21T12:02:43.367Z,930.7
2018-11-21T12:03:43.281Z,930.7
2018-11-21T12:04:43.175Z,930.7
2018-11-21T12:05:43.066Z,930.7
2018-11-21T12:06:42.975Z,930.8
2018-11-21T12:07:42.897Z,930.7
2018-11-21T12:08:42.823Z,930.6
2018-11-21T12:09:43.161Z,930.7
2018-11-21T12:10:43.071Z,930.7
2018-11-21T12:11:42.981Z,930.7
2018-11-21T12:12:42.906Z,930.7
2018-11-21T12:13:42.845Z,930.6
2018-11-21T12:14:42.753Z,930.8
2018-11-21T12:15:42.675Z,930.7
2018-11-21T12:16:42.593Z,930.9
2018-11-21T12:17:42.514Z,930.9
2018-11-21T12:18:42.422Z,930.8
2018-11-21T12:19:42.801Z,930.6
2018-11-21T12:20:42.713Z,929.2
2018-11-21T12:21:42.609Z,929
2018-11-21T12:22:42.520Z,930.5
2018-11-21T12:23:42.435Z,930.7
2018-11-21T12:24:42.349Z,930.8
2018-11-21T12:25:42.255Z,930.8
2018-11-21T12:26:42.157Z,930.8
2018-11-21T12:27:42.048Z,930.9
2018-11-21T12:28:41.992Z,930.8
2018-11-21T12:29:42.918Z,930.8
2018-11-21T12:30:42.835Z,930.9
2018-11-21T12:31:42.746Z,930.9
2018-11-21T12:32:42.653Z,930.9
2018-11-21T12:33:42.578Z,930.7
2018-11-21T12:34:42.481Z,930.7
2018-11-21T12:35:42.425Z,930.8
2018-11-21T12:36:42.324Z,930.9
2018-11-21T12:37:42.243Z,930.9
2018-11-21T12:38:42.162Z,930.9
2018-11-21T12:39:42.518Z,930.8
2018-11-21T12:40:42.272Z,930.8
2018-11-21T12:41:42.054Z,930.8
2018-11-21T12:42:41.792Z,930.8
2018-11-21T12:43:41.524Z,930.8
2018-11-21T12:44:41.265Z,930.8
2018-11-21T12:45:40.998Z,930.8
2018-11-21T12:46:40.733Z,930.8
2018-11-21T12:47:40.487Z,930.9
2018-11-21T12:48:40.211Z,930.7
2018-11-21T12:49:40.375Z,930.8
2018-11-21T12:50:40.101Z,930.8
2018-11-21T12:51:39.834Z,930.7
2018-11-21T12:52:39.577Z,930.8
2018-11-21T12:53:39.317Z,931
2018-11-21T12:54:39.074Z,930.9
2018-11-21T12:55:38.815Z,930.9
2018-11-21T12:56:38.541Z,929.3
2018-11-21T12:57:38.284Z,930.9